createdAt,value
2018-01-25T00:02:22.091Z,5.90
2018-01-25T00:04:49.539Z,5.40
2018-01-25T00:07:16.995Z,6.03
2018-01-25T00:09:44.443Z,4.73
2018-01-25T00:12:11.895Z,4.37
2018-01-25T00:14:39.350Z,5.50
2018-01-25T00:17:06.803Z,5.70
2018-01-25T00:19:34.255Z,5.80
2018-01-25T00:22:01.715Z,4.63
2018-01-25T00:24:29.171Z,5.07
2018-01-25T00:26:56.618Z,5.17
2018-01-25T00:29:24.063Z,4.90
2018-01-25T00:31:51.499Z,4.53
2018-01-25T00:34:19.715Z,5.57
2018-01-25T00:36:47.167Z,5.43
2018-01-25T00:39:14.622Z,5.10
2018-01-25T00:41:42.066Z,5.60
2018-01-25T00:44:09.518Z,5.53
2018-01-25T00:46:36.959Z,6.40
2018-01-25T00:49:05.171Z,5.80
2018-01-25T00:51:32.621Z,5.90
2018-01-25T00:54:00.086Z,6.27
2018-01-25T00:56:27.551Z,4.80
2018-01-25T00:58:55.064Z,5.10
2018-01-25T01:01:23.287Z,5.70
2018-01-25T01:03:50.783Z,5.33
2018-01-25T01:06:18.283Z,5.40
2018-01-25T01:08:45.786Z,5.50
2018-01-25T01:11:14.062Z,4.33
2018-01-25T01:13:41.560Z,4.90
2018-01-25T01:16:09.067Z,5.30
2018-01-25T01:18:36.535Z,5.83
2018-01-25T01:21:04.025Z,4.80
2018-01-25T01:23:31.565Z,4.00
2018-01-25T01:25:59.099Z,4.57
2018-01-25T01:28:26.548Z,4.87
2018-01-25T01:30:53.998Z,4.87
2018-01-25T01:33:21.434Z,5.37
2018-01-25T01:35:48.888Z,5.60
2018-01-25T01:38:16.345Z,5.23
2018-01-25T01:40:43.799Z,5.27
2018-01-25T01:43:11.234Z,4.50
2018-01-25T01:45:38.675Z,3.47
2018-01-25T01:48:06.887Z,3.00
2018-01-25T01:50:34.347Z,3.60
2018-01-25T01:53:01.796Z,3.63
2018-01-25T01:55:29.256Z,4.50
2018-01-25T01:57:56.687Z,4.53
2018-01-25T02:00:24.135Z,3.57
2018-01-25T02:02:51.582Z,2.93
2018-01-25T02:05:19.032Z,3.00
2018-01-25T02:07:46.470Z,3.60
2018-01-25T02:10:13.975Z,3.20
2018-01-25T02:12:41.412Z,4.00
2018-01-25T02:15:08.860Z,2.97
2018-01-25T02:17:36.309Z,3.40
2018-01-25T02:20:04.512Z,3.27
2018-01-25T02:22:31.951Z,3.20
2018-01-25T02:25:00.175Z,3.17
2018-01-25T02:27:27.615Z,3.27
2018-01-25T02:29:55.059Z,3.00
2018-01-25T02:32:22.507Z,3.33
2018-01-25T02:34:49.938Z,3.17
2018-01-25T02:37:17.387Z,3.47
2018-01-25T02:39:44.839Z,3.27
2018-01-25T02:42:12.279Z,3.03
2018-01-25T02:44:39.731Z,4.20
2018-01-25T02:47:07.179Z,3.50
2018-01-25T02:49:34.623Z,3.77
2018-01-25T02:52:02.074Z,3.20
2018-01-25T02:54:29.523Z,3.30
2018-01-25T02:56:56.986Z,2.93
2018-01-25T02:59:24.415Z,3.03
2018-01-25T03:01:52.631Z,3.07
2018-01-25T03:04:20.077Z,3.70
2018-01-25T03:06:47.527Z,3.50
2018-01-25T03:09:14.968Z,3.77
2018-01-25T03:11:42.410Z,3.50
2018-01-25T03:14:09.854Z,3.30
2018-01-25T03:16:37.300Z,3.63
2018-01-25T03:19:04.743Z,3.30
2018-01-25T03:21:32.190Z,3.40
2018-01-25T03:23:59.639Z,3.10
2018-01-25T03:26:27.090Z,3.37
2018-01-25T03:28:54.530Z,2.80
2018-01-25T03:31:21.988Z,3.10
2018-01-25T03:33:49.423Z,3.30
2018-01-25T03:36:16.867Z,3.00
2018-01-25T03:38:45.074Z,3.50
2018-01-25T03:41:12.528Z,3.20
2018-01-25T03:43:39.982Z,3.30
2018-01-25T03:46:08.192Z,3.20
2018-01-25T03:48:35.646Z,2.77
2018-01-25T03:51:03.083Z,3.27
2018-01-25T03:53:30.781Z,4.23
2018-01-25T03:55:58.212Z,3.10
2018-01-25T03:58:25.659Z,3.30
2018-01-25T04:00:53.099Z,3.07
2018-01-25T04:03:20.553Z,3.40
2018-01-25T04:05:47.984Z,3.90
2018-01-25T04:08:16.195Z,4.03
2018-01-25T04:10:43.639Z,4.00
2018-01-25T04:13:11.099Z,3.90
2018-01-25T04:15:38.539Z,4.03
2018-01-25T04:18:05.982Z,4.10
2018-01-25T04:20:33.419Z,4.47
2018-01-25T04:23:01.635Z,4.10
2018-01-25T04:25:29.076Z,4.30
2018-01-25T04:27:56.514Z,4.70
2018-01-25T04:30:24.723Z,4.23
2018-01-25T04:32:52.179Z,4.70
2018-01-25T04:35:19.633Z,4.03
2018-01-25T04:37:47.074Z,4.17
2018-01-25T04:40:14.514Z,4.37
2018-01-25T04:42:42.735Z,4.63
2018-01-25T04:45:10.175Z,4.73
2018-01-25T04:47:37.631Z,5.27
2018-01-25T04:50:05.080Z,4.13
2018-01-25T04:52:32.520Z,4.20
2018-01-25T04:54:59.965Z,3.83
2018-01-25T04:57:28.169Z,4.13
2018-01-25T04:59:55.627Z,3.70
2018-01-25T05:02:23.078Z,4.93
2018-01-25T05:04:50.527Z,4.80
2018-01-25T05:07:17.972Z,4.97
2018-01-25T05:09:46.184Z,4.93
2018-01-25T05:12:13.627Z,5.30
2018-01-25T05:14:41.080Z,4.70
2018-01-25T05:17:11.099Z,4.00
2018-01-25T05:19:38.559Z,4.30
2018-01-25T05:22:05.995Z,4.33
2018-01-25T05:24:33.446Z,3.50
2018-01-25T05:27:00.892Z,3.83
2018-01-25T05:29:29.128Z,3.90
2018-01-25T05:31:58.567Z,4.00
2018-01-25T05:34:26.788Z,4.10
2018-01-25T05:36:54.233Z,4.30
2018-01-25T05:39:21.708Z,3.93
2018-01-25T05:41:49.159Z,4.50
2018-01-25T05:44:16.641Z,3.53
2018-01-25T05:46:44.113Z,3.70
2018-01-25T05:49:12.388Z,3.87
2018-01-25T05:51:39.921Z,3.80
2018-01-25T05:54:07.447Z,3.77
2018-01-25T05:56:35.810Z,4.07
2018-01-25T05:59:03.337Z,4.63
2018-01-25T06:01:30.795Z,4.00
2018-01-25T06:03:59.120Z,3.70
2018-01-25T06:06:26.604Z,3.90
2018-01-25T06:08:54.096Z,3.90
2018-01-25T06:11:22.372Z,3.13
2018-01-25T06:13:49.835Z,3.67
2018-01-25T06:16:17.304Z,3.53
2018-01-25T06:18:44.766Z,3.50
2018-01-25T06:21:12.649Z,3.73
2018-01-25T06:23:40.147Z,4.37
2018-01-25T06:26:07.688Z,3.73
2018-01-25T06:28:35.235Z,3.30
2018-01-25T06:31:02.757Z,3.10
2018-01-25T06:33:30.286Z,2.97
2018-01-25T06:35:57.791Z,3.50
2018-01-25T06:38:25.327Z,3.30
2018-01-25T06:40:52.802Z,2.63
2018-01-25T06:43:20.300Z,2.70
2018-01-25T06:45:49.120Z,3.00
2018-01-25T06:48:17.327Z,4.07
2018-01-25T06:50:44.784Z,4.50
2018-01-25T06:53:13.003Z,4.73
2018-01-25T06:55:40.459Z,3.17
2018-01-25T06:58:07.903Z,3.20
2018-01-25T07:00:35.367Z,3.23
2018-01-25T07:03:02.815Z,4.50
2018-01-25T07:05:30.275Z,2.90
2018-01-25T07:07:57.727Z,3.47
2018-01-25T07:10:25.184Z,3.30
2018-01-25T07:12:52.623Z,3.40
2018-01-25T07:15:20.079Z,3.40
2018-01-25T07:17:47.520Z,3.60
2018-01-25T07:20:14.974Z,3.10
2018-01-25T07:22:42.410Z,3.83
2018-01-25T07:25:09.860Z,3.50
2018-01-25T07:27:37.311Z,3.67
2018-01-25T07:30:04.754Z,3.50
2018-01-25T07:32:33.002Z,3.50
2018-01-25T07:35:00.452Z,3.70
2018-01-25T07:37:27.898Z,3.43
2018-01-25T07:39:55.353Z,3.50
2018-01-25T07:42:22.795Z,3.50
2018-01-25T07:44:50.250Z,3.67
2018-01-25T07:47:17.702Z,3.40
2018-01-25T07:49:45.151Z,3.83
2018-01-25T07:52:12.614Z,4.10
2018-01-25T07:54:40.071Z,4.83
2018-01-25T07:57:08.350Z,4.53
2018-01-25T07:59:35.805Z,4.60
2018-01-25T08:02:03.259Z,4.50
2018-01-25T08:04:30.715Z,6.90
2018-01-25T08:06:58.170Z,5.80
2018-01-25T08:09:29.499Z,6.20
2018-01-25T08:11:56.947Z,6.07
2018-01-25T08:14:25.168Z,7.07
2018-01-25T08:16:52.629Z,6.40
2018-01-25T08:19:20.074Z,5.60
2018-01-25T08:21:47.555Z,6.90
2018-01-25T08:24:14.999Z,4.10
2018-01-25T08:26:42.452Z,3.90
2018-01-25T08:29:09.907Z,3.60
2018-01-25T08:31:37.358Z,3.30
2018-01-25T08:34:04.800Z,3.80
2018-01-25T08:36:32.268Z,8.10
2018-01-25T08:38:59.716Z,9.10
2018-01-25T08:41:33.155Z,7.20
2018-01-25T08:43:54.621Z,6.13
2018-01-25T08:46:22.076Z,5.60
2018-01-25T08:48:49.531Z,4.60
2018-01-25T08:51:16.974Z,4.83
2018-01-25T08:53:44.443Z,5.37
2018-01-25T08:56:11.879Z,5.63
2018-01-25T08:58:39.322Z,5.37
2018-01-25T09:01:06.772Z,4.87
2018-01-25T09:03:34.991Z,5.50
2018-01-25T09:06:02.441Z,5.27
2018-01-25T09:08:29.900Z,5.33
2018-01-25T09:10:57.338Z,6.10
2018-01-25T09:13:24.787Z,6.80
2018-01-25T09:15:52.234Z,9.30
2018-01-25T09:18:20.466Z,7.43
2018-01-25T09:20:47.911Z,6.87
2018-01-25T09:23:15.375Z,6.37
2018-01-25T09:25:42.815Z,6.83
2018-01-25T09:28:10.271Z,7.17
2018-01-25T09:30:37.718Z,6.80
2018-01-25T09:33:05.176Z,6.03
2018-01-25T09:35:32.634Z,6.17
2018-01-25T09:38:00.107Z,6.67
2018-01-25T09:40:27.552Z,6.20
2018-01-25T09:42:55.060Z,4.50
2018-01-25T09:45:23.275Z,5.70
2018-01-25T09:47:50.730Z,6.20
2018-01-25T09:50:18.191Z,5.73
2018-01-25T09:52:45.651Z,5.80
2018-01-25T09:55:13.098Z,5.30
2018-01-25T09:57:40.554Z,5.23
2018-01-25T10:00:08.767Z,6.50
2018-01-25T10:02:36.223Z,6.63
2018-01-25T10:05:03.684Z,6.00
2018-01-25T10:07:31.127Z,5.70
2018-01-25T10:09:58.580Z,5.57
2018-01-25T10:12:26.027Z,5.63
2018-01-25T10:14:53.492Z,5.97
2018-01-25T10:17:20.943Z,6.33
2018-01-25T10:19:48.403Z,6.60
2018-01-25T10:22:15.851Z,5.57
2018-01-25T10:24:43.311Z,7.27
2018-01-25T10:27:10.763Z,6.07
2018-01-25T10:29:38.248Z,5.77
2018-01-25T10:32:05.703Z,6.70
2018-01-25T10:34:33.152Z,8.80
2018-01-25T10:37:00.602Z,8.63
2018-01-25T10:39:28.057Z,9.30
2018-01-25T10:41:55.511Z,8.10
2018-01-25T10:44:22.959Z,8.30
2018-01-25T10:46:50.415Z,8.23
2018-01-25T10:49:17.854Z,8.17
2018-01-25T10:51:45.310Z,8.50
2018-01-25T10:54:12.767Z,7.97
2018-01-25T10:56:40.228Z,8.20
2018-01-25T10:59:07.680Z,7.17
2018-01-25T11:01:40.703Z,7.57
2018-01-25T11:04:08.151Z,7.37
2018-01-25T11:06:35.615Z,7.23
2018-01-25T11:09:03.056Z,7.80
2018-01-25T11:11:30.528Z,7.53
2018-01-25T11:13:57.986Z,7.20
2018-01-25T11:16:25.443Z,6.07
2018-01-25T11:18:52.902Z,7.60
2018-01-25T11:21:20.354Z,6.60
2018-01-25T11:23:47.810Z,8.00
2018-01-25T11:26:15.272Z,7.90
2018-01-25T11:28:42.733Z,8.00
2018-01-25T11:31:10.203Z,7.90
2018-01-25T11:33:37.653Z,7.30
2018-01-25T11:36:05.116Z,7.57
2018-01-25T11:38:32.558Z,7.80
2018-01-25T11:40:59.998Z,8.23
2018-01-25T11:43:27.459Z,7.80
2018-01-25T11:45:54.915Z,7.63
2018-01-25T11:48:22.379Z,8.47
2018-01-25T11:50:49.837Z,7.77
2018-01-25T11:53:17.305Z,7.63
2018-01-25T11:55:44.747Z,7.33
2018-01-25T11:58:12.207Z,7.63
2018-01-25T12:00:39.660Z,8.10
2018-01-25T12:03:07.119Z,7.73
2018-01-25T12:05:34.736Z,7.43
2018-01-25T12:08:02.028Z,7.33
2018-01-25T12:10:29.494Z,7.67
2018-01-25T12:12:56.951Z,8.60
2018-01-25T12:15:24.466Z,8.50
2018-01-25T12:17:51.869Z,6.40
2018-01-25T12:20:19.312Z,5.77
2018-01-25T12:22:46.766Z,5.10
2018-01-25T12:25:14.210Z,4.03
2018-01-25T12:27:41.666Z,4.73
2018-01-25T12:30:09.113Z,4.40
2018-01-25T12:32:37.330Z,4.10
2018-01-25T12:35:05.551Z,4.17
2018-01-25T12:37:33.007Z,4.33
2018-01-25T12:40:00.459Z,4.00
2018-01-25T12:42:27.920Z,4.10
2018-01-25T12:44:55.366Z,6.17
2018-01-25T12:47:22.821Z,5.13
2018-01-25T12:49:50.262Z,4.57
2018-01-25T12:52:17.719Z,4.17
2018-01-25T12:54:45.167Z,3.60
2018-01-25T12:57:13.389Z,4.30
2018-01-25T12:59:40.827Z,3.97
2018-01-25T13:02:08.311Z,3.60
2018-01-25T13:04:35.739Z,4.17
2018-01-25T13:07:03.174Z,3.80
2018-01-25T13:09:30.624Z,4.87
2018-01-25T13:11:58.076Z,5.40
2018-01-25T13:14:26.307Z,4.30
2018-01-25T13:16:53.768Z,5.67
2018-01-25T13:19:21.224Z,4.87
2018-01-25T13:21:48.684Z,5.00
2018-01-25T13:24:16.134Z,3.90
2018-01-25T13:26:43.591Z,3.40
2018-01-25T13:29:11.043Z,4.07
2018-01-25T13:31:38.486Z,4.00
2018-01-25T13:34:05.947Z,3.80
2018-01-25T13:36:33.391Z,3.90
2018-01-25T13:39:00.849Z,4.20
2018-01-25T13:41:28.307Z,4.00
2018-01-25T13:43:55.757Z,4.37
2018-01-25T13:46:24.100Z,4.17
2018-01-25T13:48:52.321Z,3.97
2018-01-25T13:51:19.767Z,4.40
2018-01-25T13:53:47.239Z,4.93
2018-01-25T13:56:14.675Z,3.70
2018-01-25T13:58:42.131Z,3.90
2018-01-25T14:01:09.638Z,5.13
2018-01-25T14:03:37.065Z,5.40
2018-01-25T14:06:04.514Z,5.47
2018-01-25T14:08:31.973Z,5.60
2018-01-25T14:10:59.429Z,5.37
2018-01-25T14:13:26.871Z,5.93
2018-01-25T14:15:54.326Z,6.10
2018-01-25T14:18:21.783Z,6.17
2018-01-25T14:20:49.240Z,6.10
2018-01-25T14:23:16.701Z,7.53
2018-01-25T14:25:44.155Z,6.57
2018-01-25T14:28:11.620Z,5.50
2018-01-25T14:30:39.071Z,4.80
2018-01-25T14:33:06.518Z,5.37
2018-01-25T14:35:33.974Z,5.20
2018-01-25T14:38:01.431Z,5.30
2018-01-25T14:40:28.903Z,4.73
2018-01-25T14:42:56.351Z,5.27
2018-01-25T14:45:23.803Z,5.00
2018-01-25T14:47:51.254Z,5.20
2018-01-25T14:50:18.717Z,4.53
2018-01-25T14:55:19.831Z,6.20
2018-01-25T14:57:47.279Z,5.30
2018-01-25T15:00:14.736Z,5.70
2018-01-25T15:02:42.186Z,5.37
2018-01-25T15:05:09.643Z,5.73
2018-01-25T15:07:37.108Z,5.93
2018-01-25T15:10:04.560Z,6.47
2018-01-25T15:12:32.021Z,7.03
2018-01-25T15:14:59.466Z,7.13
2018-01-25T15:17:26.924Z,6.27
2018-01-25T15:19:54.383Z,4.77
2018-01-25T15:22:21.836Z,5.63
2018-01-25T15:24:49.292Z,6.07
2018-01-25T15:27:22.507Z,5.07
2018-01-25T15:29:50.720Z,6.07
2018-01-25T15:32:18.180Z,6.53
2018-01-25T15:34:45.630Z,6.00
2018-01-25T15:37:13.091Z,6.57
2018-01-25T15:39:40.768Z,6.97
2018-01-25T15:42:08.210Z,7.83
2018-01-25T15:44:35.658Z,6.93
2018-01-25T15:47:03.120Z,7.90
2018-01-25T15:49:30.559Z,7.17
2018-01-25T15:51:58.010Z,7.13
2018-01-25T15:54:25.467Z,6.87
2018-01-25T15:56:52.923Z,7.50
2018-01-25T15:59:20.386Z,6.17
2018-01-25T16:01:47.849Z,6.40
2018-01-25T16:04:15.291Z,6.20
2018-01-25T16:06:42.753Z,8.80
2018-01-25T16:09:10.199Z,11.63
2018-01-25T16:11:38.423Z,11.63
2018-01-25T16:14:05.880Z,12.70
2018-01-25T16:16:33.347Z,13.20
2018-01-25T16:19:00.801Z,15.03
2018-01-25T16:21:28.250Z,13.67
2018-01-25T16:23:55.724Z,15.20
2018-01-25T16:26:23.174Z,16.27
2018-01-25T16:28:50.634Z,16.37
2018-01-25T16:31:18.092Z,14.23
2018-01-25T16:33:45.551Z,15.27
2018-01-25T16:36:13.003Z,11.83
2018-01-25T16:38:40.450Z,12.53
2018-01-25T16:41:07.898Z,11.97
2018-01-25T16:43:35.359Z,9.90
2018-01-25T16:46:02.814Z,10.77
2018-01-25T16:48:30.267Z,13.50
2018-01-25T16:50:57.723Z,12.70
2018-01-25T16:53:25.166Z,11.33
2018-01-25T16:55:52.610Z,15.27
2018-01-25T16:58:20.835Z,16.87
2018-01-25T17:00:48.275Z,11.20
2018-01-25T17:03:15.726Z,10.53
2018-01-25T17:05:43.181Z,10.43
2018-01-25T17:08:10.686Z,11.23
2018-01-25T17:10:38.131Z,10.80
2018-01-25T17:13:06.355Z,11.27
2018-01-25T17:15:33.799Z,14.67
2018-01-25T17:18:01.322Z,11.47
2018-01-25T17:20:29.531Z,10.83
2018-01-25T17:22:56.986Z,11.90
2018-01-25T17:25:24.490Z,11.97
2018-01-25T17:27:51.990Z,29.60
2018-01-25T17:30:19.485Z,16.23
2018-01-25T17:32:46.902Z,16.97
2018-01-25T17:35:14.413Z,18.03
2018-01-25T17:37:41.859Z,16.90
2018-01-25T17:40:09.337Z,43.57
2018-01-25T17:42:36.815Z,34.77
2018-01-25T17:45:05.035Z,27.20
2018-01-25T17:47:32.491Z,15.23
2018-01-25T17:49:59.994Z,14.23
2018-01-25T17:52:28.205Z,10.70
2018-01-25T17:54:55.658Z,10.37
2018-01-25T17:57:23.923Z,12.30
2018-01-25T17:59:51.370Z,12.13
2018-01-25T18:02:18.828Z,13.17
2018-01-25T18:04:46.275Z,12.87
2018-01-25T18:07:13.727Z,11.30
2018-01-25T18:09:41.946Z,11.93
2018-01-25T18:12:09.404Z,12.03
2018-01-25T18:14:36.983Z,10.43
2018-01-25T18:17:04.483Z,10.03
2018-01-25T18:19:32.752Z,12.40
2018-01-25T18:22:00.977Z,14.00
2018-01-25T18:24:28.437Z,13.03
2018-01-25T18:26:55.879Z,17.50
2018-01-25T18:29:23.356Z,11.60
2018-01-25T18:31:50.812Z,12.40
2018-01-25T18:34:18.267Z,9.17
2018-01-25T18:36:45.766Z,9.30
2018-01-25T18:39:14.014Z,8.93
2018-01-25T18:41:41.455Z,9.40
2018-01-25T18:44:08.959Z,9.50
2018-01-25T18:46:36.401Z,7.87
2018-01-25T18:49:04.657Z,7.60
2018-01-25T18:51:32.142Z,7.30
2018-01-25T18:54:00.402Z,7.67
2018-01-25T18:56:28.682Z,7.37
2018-01-25T18:58:56.891Z,7.67
2018-01-25T19:01:24.391Z,7.60
2018-01-25T19:03:51.881Z,10.30
2018-01-25T19:06:20.155Z,14.90
2018-01-25T19:08:48.418Z,11.80
2018-01-25T19:11:16.694Z,11.90
2018-01-25T19:13:44.957Z,12.63
2018-01-25T19:16:12.453Z,13.77
2018-01-25T19:18:39.894Z,13.50
2018-01-25T19:21:07.406Z,13.47
2018-01-25T19:23:34.847Z,13.07
2018-01-25T19:26:02.306Z,12.70
2018-01-25T19:28:29.806Z,17.80
2018-01-25T19:30:58.030Z,17.43
2018-01-25T19:33:25.530Z,15.73
2018-01-25T19:35:53.040Z,13.33
2018-01-25T19:38:20.532Z,11.30
2018-01-25T19:40:48.030Z,12.40
2018-01-25T19:43:15.479Z,12.20
2018-01-25T19:45:43.746Z,14.80
2018-01-25T19:48:11.959Z,11.40
2018-01-25T19:50:39.462Z,16.60
2018-01-25T19:53:06.967Z,11.70
2018-01-25T19:55:34.451Z,13.10
2018-01-25T19:58:01.966Z,10.97
2018-01-25T20:00:30.770Z,10.67
2018-01-25T20:02:58.235Z,9.70
2018-01-25T20:05:25.683Z,11.30
2018-01-25T20:07:53.198Z,10.50
2018-01-25T20:10:20.754Z,12.60
2018-01-25T20:12:49.049Z,13.57
2018-01-25T20:15:17.250Z,12.77
2018-01-25T20:17:44.770Z,13.23
2018-01-25T20:20:13.040Z,12.50
2018-01-25T20:22:41.328Z,10.23
2018-01-25T20:25:09.598Z,10.23
2018-01-25T20:27:37.874Z,10.80
2018-01-25T20:30:06.137Z,10.20
2018-01-25T20:32:33.629Z,10.73
2018-01-25T20:35:01.135Z,10.50
2018-01-25T20:37:28.705Z,10.20
2018-01-25T20:39:57.369Z,11.40
2018-01-25T20:42:25.041Z,12.93
2018-01-25T20:44:52.541Z,12.60
2018-01-25T20:47:20.245Z,9.70
2018-01-25T20:49:58.221Z,9.60
2018-01-25T20:52:25.729Z,9.30
2018-01-25T20:54:53.163Z,9.40
2018-01-25T20:57:20.675Z,9.53
2018-01-25T20:59:48.939Z,9.70
2018-01-25T21:02:17.198Z,11.70
2018-01-25T21:04:44.699Z,12.80
2018-01-25T21:07:22.090Z,14.00
2018-01-25T21:09:49.571Z,14.60
2018-01-25T21:12:17.030Z,15.10
2018-01-25T21:14:44.529Z,13.60
2018-01-25T21:17:12.798Z,13.47
2018-01-25T21:19:41.023Z,12.87
2018-01-25T21:22:08.535Z,14.60
2018-01-25T21:24:36.799Z,13.17
2018-01-25T21:27:04.297Z,13.67
2018-01-25T21:29:31.803Z,13.53
2018-01-25T21:32:00.057Z,13.50
2018-01-25T21:34:27.503Z,13.10
2018-01-25T21:36:54.959Z,13.60
2018-01-25T21:39:23.236Z,13.50
2018-01-25T21:41:50.674Z,13.80
2018-01-25T21:44:18.183Z,12.67
2018-01-25T21:46:45.673Z,14.10
2018-01-25T21:49:13.929Z,13.40
2018-01-25T21:51:42.186Z,14.30
2018-01-25T21:54:09.646Z,13.93
2018-01-25T21:56:37.146Z,13.83
2018-01-25T21:59:04.654Z,14.23
2018-01-25T22:01:32.095Z,14.47
2018-01-25T22:03:59.596Z,14.60
2018-01-25T22:06:27.854Z,12.40
2018-01-25T22:08:55.351Z,13.20
2018-01-25T22:11:22.833Z,11.77
2018-01-25T22:13:50.282Z,12.70
2018-01-25T22:16:17.801Z,12.40
2018-01-25T22:18:46.014Z,11.20
2018-01-25T22:21:13.522Z,12.90
2018-01-25T22:23:41.802Z,11.40
2018-01-25T22:26:09.298Z,11.03
2018-01-25T22:28:36.732Z,9.50
2018-01-25T22:31:04.230Z,11.37
2018-01-25T22:33:31.730Z,10.50
2018-01-25T22:35:59.238Z,11.70
2018-01-25T22:38:26.725Z,11.03
2018-01-25T22:40:54.203Z,11.83
2018-01-25T22:43:22.490Z,11.27
2018-01-25T22:45:50.753Z,11.43
2018-01-25T22:48:18.247Z,14.23
2018-01-25T22:50:45.689Z,12.83
2018-01-25T22:53:13.134Z,12.00
2018-01-25T22:55:41.388Z,14.20
2018-01-25T22:58:08.881Z,12.30
2018-01-25T23:00:39.151Z,13.20
2018-01-25T23:03:06.598Z,15.80
2018-01-25T23:05:34.056Z,14.83
2018-01-25T23:08:01.500Z,15.40
2018-01-25T23:10:28.964Z,13.90
2018-01-25T23:12:56.420Z,16.03
2018-01-25T23:15:23.875Z,15.50
2018-01-25T23:17:51.367Z,14.10
2018-01-25T23:20:18.867Z,14.17
2018-01-25T23:22:46.299Z,13.87
2018-01-25T23:25:14.568Z,11.63
2018-01-25T23:27:42.776Z,13.30
2018-01-25T23:30:10.263Z,13.60
2018-01-25T23:32:37.711Z,14.87
2018-01-25T23:35:05.167Z,14.60
2018-01-25T23:37:32.627Z,13.80
2018-01-25T23:40:00.082Z,11.80
2018-01-25T23:42:27.540Z,12.97
2018-01-25T23:44:54.992Z,12.60
2018-01-25T23:47:22.496Z,13.13
2018-01-25T23:49:50.705Z,13.00
2018-01-25T23:52:18.159Z,13.13
2018-01-25T23:54:45.610Z,12.83
2018-01-25T23:57:13.062Z,12.90
2018-01-25T23:59:41.286Z,12.20
